sensor_id;sensor_type;location;lat;lon;timestamp;P1;durP1;ratioP1;P2;durP2;ratioP2
66212;SDS011;53015;50.046;8.238;2023-07-24T00:01:18;2.33;;;1.92;;
66212;SDS011;53015;50.046;8.238;2023-07-24T00:03:43;2.40;;;1.80;;
66212;SDS011;53015;50.046;8.238;2023-07-24T00:06:09;3.65;;;1.80;;
66212;SDS011;53015;50.046;8.238;2023-07-24T00:08:35;4.07;;;1.90;;
66212;SDS011;53015;50.046;8.238;2023-07-24T00:11:00;3.92;;;1.90;;
66212;SDS011;53015;50.046;8.238;2023-07-24T00:13:26;2.03;;;1.77;;
66212;SDS011;53015;50.046;8.238;2023-07-24T00:15:52;2.40;;;1.75;;
66212;SDS011;53015;50.046;8.238;2023-07-24T00:18:18;3.67;;;1.77;;
66212;SDS011;53015;50.046;8.238;2023-07-24T00:20:44;1.88;;;1.67;;
66212;SDS011;53015;50.046;8.238;2023-07-24T00:23:09;4.40;;;1.75;;
66212;SDS011;53015;50.046;8.238;2023-07-24T00:25:35;2.25;;;1.83;;
66212;SDS011;53015;50.046;8.238;2023-07-24T00:28:00;4.10;;;1.70;;
66212;SDS011;53015;50.046;8.238;2023-07-24T00:30:26;2.35;;;1.58;;
66212;SDS011;53015;50.046;8.238;2023-07-24T00:32:53;3.25;;;1.70;;
66212;SDS011;53015;50.046;8.238;2023-07-24T00:35:18;2.30;;;1.50;;
66212;SDS011;53015;50.046;8.238;2023-07-24T00:37:43;1.95;;;1.52;;
66212;SDS011;53015;50.046;8.238;2023-07-24T00:40:09;3.28;;;1.63;;
66212;SDS011;53015;50.046;8.238;2023-07-24T00:42:35;3.08;;;1.80;;
66212;SDS011;53015;50.046;8.238;2023-07-24T00:45:01;1.70;;;1.48;;
66212;SDS011;53015;50.046;8.238;2023-07-24T00:47:26;2.50;;;1.75;;
66212;SDS011;53015;50.046;8.238;2023-07-24T00:49:54;1.98;;;1.70;;
66212;SDS011;53015;50.046;8.238;2023-07-24T00:52:20;6.00;;;1.80;;
66212;SDS011;53015;50.046;8.238;2023-07-24T00:54:46;1.88;;;1.63;;
66212;SDS011;53015;50.046;8.238;2023-07-24T00:57:12;2.08;;;1.70;;
66212;SDS011;53015;50.046;8.238;2023-07-24T00:59:38;1.90;;;1.40;;
66212;SDS011;53015;50.046;8.238;2023-07-24T01:02:04;2.15;;;1.63;;
66212;SDS011;53015;50.046;8.238;2023-07-24T01:04:30;4.45;;;1.60;;
66212;SDS011;53015;50.046;8.238;2023-07-24T01:06:57;1.80;;;1.52;;
66212;SDS011;53015;50.046;8.238;2023-07-24T01:09:22;2.08;;;1.73;;
66212;SDS011;53015;50.046;8.238;2023-07-24T01:11:50;4.95;;;1.80;;
66212;SDS011;53015;50.046;8.238;2023-07-24T01:14:20;3.58;;;1.60;;
66212;SDS011;53015;50.046;8.238;2023-07-24T01:16:48;2.70;;;1.83;;
66212;SDS011;53015;50.046;8.238;2023-07-24T01:19:16;4.20;;;1.80;;
66212;SDS011;53015;50.046;8.238;2023-07-24T01:21:51;2.73;;;1.60;;
66212;SDS011;53015;50.046;8.238;2023-07-24T01:24:29;5.85;;;1.88;;
66212;SDS011;53015;50.046;8.238;2023-07-24T01:27:03;1.92;;;1.60;;
66212;SDS011;53015;50.046;8.238;2023-07-24T01:29:31;1.88;;;1.60;;
66212;SDS011;53015;50.046;8.238;2023-07-24T01:31:57;1.73;;;1.38;;
66212;SDS011;53015;50.046;8.238;2023-07-24T01:34:22;2.33;;;1.40;;
66212;SDS011;53015;50.046;8.238;2023-07-24T01:36:48;2.22;;;1.60;;
66212;SDS011;53015;50.046;8.238;2023-07-24T01:39:14;2.63;;;1.80;;
66212;SDS011;53015;50.046;8.238;2023-07-24T01:41:41;1.67;;;1.50;;
66212;SDS011;53015;50.046;8.238;2023-07-24T01:44:08;1.92;;;1.50;;
66212;SDS011;53015;50.046;8.238;2023-07-24T01:46:34;3.35;;;1.48;;
66212;SDS011;53015;50.046;8.238;2023-07-24T01:48:59;2.17;;;1.63;;
66212;SDS011;53015;50.046;8.238;2023-07-24T01:51:25;2.38;;;1.58;;
66212;SDS011;53015;50.046;8.238;2023-07-24T01:53:50;2.63;;;1.60;;
66212;SDS011;53015;50.046;8.238;2023-07-24T01:56:16;2.35;;;1.40;;
66212;SDS011;53015;50.046;8.238;2023-07-24T01:58:41;3.22;;;1.48;;
66212;SDS011;53015;50.046;8.238;2023-07-24T02:01:08;3.20;;;1.60;;
66212;SDS011;53015;50.046;8.238;2023-07-24T02:03:34;2.85;;;1.77;;
66212;SDS011;53015;50.046;8.238;2023-07-24T02:05:59;3.13;;;1.65;;
66212;SDS011;53015;50.046;8.238;2023-07-24T02:08:25;2.85;;;1.70;;
66212;SDS011;53015;50.046;8.238;2023-07-24T02:10:50;3.95;;;1.67;;
66212;SDS011;53015;50.046;8.238;2023-07-24T02:13:16;2.85;;;1.63;;
66212;SDS011;53015;50.046;8.238;2023-07-24T02:15:41;2.03;;;1.52;;
66212;SDS011;53015;50.046;8.238;2023-07-24T02:18:08;3.08;;;1.77;;
66212;SDS011;53015;50.046;8.238;2023-07-24T02:20:34;2.60;;;1.25;;
66212;SDS011;53015;50.046;8.238;2023-07-24T02:22:59;3.17;;;1.38;;
66212;SDS011;53015;50.046;8.238;2023-07-24T02:25:25;1.67;;;1.42;;
66212;SDS011;53015;50.046;8.238;2023-07-24T02:27:50;1.98;;;1.50;;
66212;SDS011;53015;50.046;8.238;2023-07-24T02:30:16;2.08;;;1.40;;
66212;SDS011;53015;50.046;8.238;2023-07-24T02:32:41;3.10;;;1.58;;
66212;SDS011;53015;50.046;8.238;2023-07-24T02:35:08;2.28;;;1.35;;
66212;SDS011;53015;50.046;8.238;2023-07-24T02:37:35;1.92;;;1.45;;
66212;SDS011;53015;50.046;8.238;2023-07-24T02:40:00;3.40;;;1.60;;
66212;SDS011;53015;50.046;8.238;2023-07-24T02:42:26;2.08;;;1.55;;
66212;SDS011;53015;50.046;8.238;2023-07-24T02:44:51;4.60;;;1.83;;
66212;SDS011;53015;50.046;8.238;2023-07-24T02:47:17;1.67;;;1.42;;
66212;SDS011;53015;50.046;8.238;2023-07-24T02:49:42;2.38;;;1.40;;
66212;SDS011;53015;50.046;8.238;2023-07-24T02:52:09;3.28;;;1.60;;
66212;SDS011;53015;50.046;8.238;2023-07-24T02:54:35;2.33;;;1.48;;
66212;SDS011;53015;50.046;8.238;2023-07-24T02:57:00;2.40;;;1.60;;
66212;SDS011;53015;50.046;8.238;2023-07-24T02:59:26;3.50;;;1.70;;
66212;SDS011;53015;50.046;8.238;2023-07-24T03:01:51;2.90;;;1.45;;
66212;SDS011;53015;50.046;8.238;2023-07-24T03:04:17;2.92;;;1.65;;
66212;SDS011;53015;50.046;8.238;2023-07-24T03:06:42;1.83;;;1.40;;
66212;SDS011;53015;50.046;8.238;2023-07-24T03:09:09;1.65;;;1.40;;
66212;SDS011;53015;50.046;8.238;2023-07-24T03:11:34;2.90;;;1.60;;
66212;SDS011;53015;50.046;8.238;2023-07-24T03:14:00;1.30;;;1.20;;
66212;SDS011;53015;50.046;8.238;2023-07-24T03:16:25;2.75;;;1.60;;
66212;SDS011;53015;50.046;8.238;2023-07-24T03:18:51;3.83;;;1.80;;
66212;SDS011;53015;50.046;8.238;2023-07-24T03:21:16;2.53;;;1.40;;
66212;SDS011;53015;50.046;8.238;2023-07-24T03:23:42;2.53;;;1.50;;
66212;SDS011;53015;50.046;8.238;2023-07-24T03:26:09;2.10;;;1.50;;
66212;SDS011;53015;50.046;8.238;2023-07-24T03:28:34;4.22;;;1.80;;
66212;SDS011;53015;50.046;8.238;2023-07-24T03:31:00;2.30;;;1.42;;
66212;SDS011;53015;50.046;8.238;2023-07-24T03:33:26;2.28;;;1.50;;
66212;SDS011;53015;50.046;8.238;2023-07-24T03:35:51;1.60;;;1.50;;
66212;SDS011;53015;50.046;8.238;2023-07-24T03:38:17;4.45;;;1.55;;
66212;SDS011;53015;50.046;8.238;2023-07-24T03:40:42;4.53;;;1.58;;
66212;SDS011;53015;50.046;8.238;2023-07-24T03:43:09;2.88;;;1.45;;
66212;SDS011;53015;50.046;8.238;2023-07-24T03:45:35;2.67;;;1.55;;
66212;SDS011;53015;50.046;8.238;2023-07-24T03:48:00;2.47;;;1.55;;
66212;SDS011;53015;50.046;8.238;2023-07-24T03:50:26;2.00;;;1.27;;
66212;SDS011;53015;50.046;8.238;2023-07-24T03:52:53;2.45;;;1.60;;
66212;SDS011;53015;50.046;8.238;2023-07-24T03:55:19;2.70;;;1.83;;
66212;SDS011;53015;50.046;8.238;2023-07-24T03:57:45;2.25;;;1.60;;
66212;SDS011;53015;50.046;8.238;2023-07-24T04:00:13;2.55;;;1.45;;
66212;SDS011;53015;50.046;8.238;2023-07-24T04:02:39;3.67;;;1.70;;
66212;SDS011;53015;50.046;8.238;2023-07-24T04:05:04;4.18;;;1.45;;
66212;SDS011;53015;50.046;8.238;2023-07-24T04:07:30;4.80;;;1.60;;
66212;SDS011;53015;50.046;8.238;2023-07-24T04:09:55;2.38;;;1.63;;
66212;SDS011;53015;50.046;8.238;2023-07-24T04:12:21;4.43;;;1.80;;
66212;SDS011;53015;50.046;8.238;2023-07-24T04:14:46;2.83;;;1.63;;
66212;SDS011;53015;50.046;8.238;2023-07-24T04:17:13;5.25;;;1.83;;
66212;SDS011;53015;50.046;8.238;2023-07-24T04:19:39;1.60;;;1.20;;
66212;SDS011;53015;50.046;8.238;2023-07-24T04:22:04;5.93;;;1.75;;
66212;SDS011;53015;50.046;8.238;2023-07-24T04:24:30;2.85;;;1.70;;
66212;SDS011;53015;50.046;8.238;2023-07-24T04:26:55;3.35;;;1.80;;
66212;SDS011;53015;50.046;8.238;2023-07-24T04:29:21;3.30;;;1.67;;
66212;SDS011;53015;50.046;8.238;2023-07-24T04:31:46;5.15;;;2.00;;
66212;SDS011;53015;50.046;8.238;2023-07-24T04:34:13;8.15;;;2.05;;
66212;SDS011;53015;50.046;8.238;2023-07-24T04:36:39;20.77;;;2.53;;
66212;SDS011;53015;50.046;8.238;2023-07-24T04:39:04;9.02;;;2.38;;
66212;SDS011;53015;50.046;8.238;2023-07-24T04:41:30;8.82;;;2.05;;
66212;SDS011;53015;50.046;8.238;2023-07-24T04:43:55;12.10;;;2.47;;
66212;SDS011;53015;50.046;8.238;2023-07-24T04:46:20;8.02;;;2.30;;
66212;SDS011;53015;50.046;8.238;2023-07-24T04:48:46;9.23;;;2.45;;
66212;SDS011;53015;50.046;8.238;2023-07-24T04:51:13;3.90;;;2.30;;
66212;SDS011;53015;50.046;8.238;2023-07-24T04:53:38;10.57;;;1.98;;
66212;SDS011;53015;50.046;8.238;2023-07-24T04:56:04;8.43;;;2.58;;
66212;SDS011;53015;50.046;8.238;2023-07-24T04:58:29;15.88;;;2.83;;
66212;SDS011;53015;50.046;8.238;2023-07-24T05:00:55;15.38;;;2.42;;
66212;SDS011;53015;50.046;8.238;2023-07-24T05:03:20;9.98;;;2.40;;
66212;SDS011;53015;50.046;8.238;2023-07-24T05:05:47;15.45;;;2.53;;
66212;SDS011;53015;50.046;8.238;2023-07-24T05:08:15;16.58;;;2.53;;
66212;SDS011;53015;50.046;8.238;2023-07-24T05:10:40;10.15;;;2.85;;
66212;SDS011;53015;50.046;8.238;2023-07-24T05:13:06;19.70;;;2.50;;
66212;SDS011;53015;50.046;8.238;2023-07-24T05:15:31;8.85;;;2.13;;
66212;SDS011;53015;50.046;8.238;2023-07-24T05:17:57;3.53;;;1.80;;
66212;SDS011;53015;50.046;8.238;2023-07-24T05:20:22;5.85;;;1.90;;
66212;SDS011;53015;50.046;8.238;2023-07-24T05:22:48;3.55;;;2.08;;
66212;SDS011;53015;50.046;8.238;2023-07-24T05:25:15;5.30;;;2.00;;
66212;SDS011;53015;50.046;8.238;2023-07-24T05:27:40;3.60;;;2.10;;
66212;SDS011;53015;50.046;8.238;2023-07-24T05:30:06;6.20;;;2.50;;
66212;SDS011;53015;50.046;8.238;2023-07-24T05:32:32;3.92;;;2.05;;
66212;SDS011;53015;50.046;8.238;2023-07-24T05:34:58;3.53;;;2.35;;
66212;SDS011;53015;50.046;8.238;2023-07-24T05:37:23;5.72;;;2.15;;
66212;SDS011;53015;50.046;8.238;2023-07-24T05:39:49;5.05;;;2.13;;
66212;SDS011;53015;50.046;8.238;2023-07-24T05:42:15;6.57;;;1.80;;
66212;SDS011;53015;50.046;8.238;2023-07-24T05:44:41;4.25;;;1.90;;
66212;SDS011;53015;50.046;8.238;2023-07-24T05:47:06;8.55;;;2.05;;
66212;SDS011;53015;50.046;8.238;2023-07-24T05:49:32;6.97;;;2.13;;
66212;SDS011;53015;50.046;8.238;2023-07-24T05:51:57;5.07;;;2.00;;
66212;SDS011;53015;50.046;8.238;2023-07-24T05:54:23;3.88;;;1.88;;
66212;SDS011;53015;50.046;8.238;2023-07-24T05:56:49;4.38;;;1.90;;
66212;SDS011;53015;50.046;8.238;2023-07-24T05:59:18;9.40;;;1.83;;
66212;SDS011;53015;50.046;8.238;2023-07-24T06:01:43;8.52;;;1.73;;
66212;SDS011;53015;50.046;8.238;2023-07-24T06:04:09;7.72;;;2.50;;
66212;SDS011;53015;50.046;8.238;2023-07-24T06:06:34;3.42;;;2.00;;
66212;SDS011;53015;50.046;8.238;2023-07-24T06:09:00;7.75;;;1.80;;
66212;SDS011;53015;50.046;8.238;2023-07-24T06:11:25;5.20;;;1.73;;
66212;SDS011;53015;50.046;8.238;2023-07-24T06:13:51;2.85;;;1.60;;
66212;SDS011;53015;50.046;8.238;2023-07-24T06:16:18;5.63;;;1.77;;
66212;SDS011;53015;50.046;8.238;2023-07-24T06:18:43;6.43;;;1.77;;
66212;SDS011;53015;50.046;8.238;2023-07-24T06:21:09;8.68;;;2.08;;
66212;SDS011;53015;50.046;8.238;2023-07-24T06:23:34;4.20;;;1.83;;
66212;SDS011;53015;50.046;8.238;2023-07-24T06:26:00;2.22;;;1.85;;
66212;SDS011;53015;50.046;8.238;2023-07-24T06:28:25;12.45;;;3.45;;
66212;SDS011;53015;50.046;8.238;2023-07-24T06:30:51;2.55;;;1.70;;
66212;SDS011;53015;50.046;8.238;2023-07-24T06:33:18;5.68;;;2.00;;
66212;SDS011;53015;50.046;8.238;2023-07-24T06:35:44;4.15;;;2.60;;
66212;SDS011;53015;50.046;8.238;2023-07-24T06:38:09;9.48;;;2.85;;
66212;SDS011;53015;50.046;8.238;2023-07-24T06:40:35;4.65;;;2.58;;
66212;SDS011;53015;50.046;8.238;2023-07-24T06:43:00;10.88;;;2.92;;
66212;SDS011;53015;50.046;8.238;2023-07-24T06:45:26;5.70;;;2.38;;
66212;SDS011;53015;50.046;8.238;2023-07-24T06:47:51;4.35;;;2.25;;
66212;SDS011;53015;50.046;8.238;2023-07-24T06:50:18;4.32;;;1.95;;
66212;SDS011;53015;50.046;8.238;2023-07-24T06:52:44;11.88;;;2.30;;
66212;SDS011;53015;50.046;8.238;2023-07-24T06:55:09;2.03;;;1.52;;
66212;SDS011;53015;50.046;8.238;2023-07-24T06:57:35;3.10;;;1.55;;
66212;SDS011;53015;50.046;8.238;2023-07-24T07:00:00;6.32;;;1.98;;
66212;SDS011;53015;50.046;8.238;2023-07-24T07:02:26;2.65;;;1.60;;
66212;SDS011;53015;50.046;8.238;2023-07-24T07:04:51;2.22;;;1.45;;
66212;SDS011;53015;50.046;8.238;2023-07-24T07:07:18;3.65;;;1.80;;
66212;SDS011;53015;50.046;8.238;2023-07-24T07:09:43;4.53;;;1.73;;
66212;SDS011;53015;50.046;8.238;2023-07-24T07:12:09;3.15;;;1.85;;
66212;SDS011;53015;50.046;8.238;2023-07-24T07:14:34;2.13;;;1.50;;
66212;SDS011;53015;50.046;8.238;2023-07-24T07:17:00;2.95;;;1.90;;
66212;SDS011;53015;50.046;8.238;2023-07-24T07:19:25;3.35;;;1.60;;
66212;SDS011;53015;50.046;8.238;2023-07-24T07:21:52;7.68;;;1.67;;
66212;SDS011;53015;50.046;8.238;2023-07-24T07:24:18;6.93;;;1.95;;
66212;SDS011;53015;50.046;8.238;2023-07-24T07:26:44;4.63;;;1.90;;
66212;SDS011;53015;50.046;8.238;2023-07-24T07:29:09;2.83;;;1.80;;
66212;SDS011;53015;50.046;8.238;2023-07-24T07:31:35;1.92;;;1.70;;
66212;SDS011;53015;50.046;8.238;2023-07-24T07:34:00;2.05;;;1.70;;
66212;SDS011;53015;50.046;8.238;2023-07-24T07:36:26;3.70;;;1.95;;
66212;SDS011;53015;50.046;8.238;2023-07-24T07:38:51;4.43;;;1.85;;
66212;SDS011;53015;50.046;8.238;2023-07-24T07:41:18;2.45;;;1.67;;
66212;SDS011;53015;50.046;8.238;2023-07-24T07:43:44;3.47;;;2.10;;
66212;SDS011;53015;50.046;8.238;2023-07-24T07:46:09;2.80;;;2.00;;
66212;SDS011;53015;50.046;8.238;2023-07-24T07:48:34;4.75;;;1.90;;
66212;SDS011;53015;50.046;8.238;2023-07-24T07:51:00;3.33;;;2.03;;
66212;SDS011;53015;50.046;8.238;2023-07-24T07:53:25;5.60;;;2.00;;
66212;SDS011;53015;50.046;8.238;2023-07-24T07:55:57;2.88;;;1.95;;
66212;SDS011;53015;50.046;8.238;2023-07-24T08:00:50;4.18;;;2.13;;
66212;SDS011;53015;50.046;8.238;2023-07-24T08:03:16;3.53;;;2.00;;
66212;SDS011;53015;50.046;8.238;2023-07-24T08:05:41;4.28;;;1.98;;
66212;SDS011;53015;50.046;8.238;2023-07-24T08:08:07;6.38;;;2.10;;
66212;SDS011;53015;50.046;8.238;2023-07-24T08:10:32;4.22;;;2.13;;
66212;SDS011;53015;50.046;8.238;2023-07-24T08:12:58;5.25;;;2.28;;
66212;SDS011;53015;50.046;8.238;2023-07-24T08:15:25;4.05;;;2.20;;
66212;SDS011;53015;50.046;8.238;2023-07-24T08:17:50;5.32;;;2.05;;
66212;SDS011;53015;50.046;8.238;2023-07-24T08:20:16;4.78;;;2.10;;
66212;SDS011;53015;50.046;8.238;2023-07-24T08:22:41;5.20;;;2.05;;
66212;SDS011;53015;50.046;8.238;2023-07-24T08:25:07;2.92;;;1.80;;
66212;SDS011;53015;50.046;8.238;2023-07-24T08:27:33;3.20;;;1.95;;
66212;SDS011;53015;50.046;8.238;2023-07-24T08:29:58;3.67;;;2.40;;
66212;SDS011;53015;50.046;8.238;2023-07-24T08:32:25;4.05;;;2.22;;
66212;SDS011;53015;50.046;8.238;2023-07-24T08:34:50;7.38;;;2.45;;
66212;SDS011;53015;50.046;8.238;2023-07-24T08:37:16;2.72;;;1.83;;
66212;SDS011;53015;50.046;8.238;2023-07-24T08:39:41;5.78;;;2.50;;
66212;SDS011;53015;50.046;8.238;2023-07-24T08:42:10;3.15;;;2.00;;
66212;SDS011;53015;50.046;8.238;2023-07-24T08:44:36;3.78;;;1.80;;
66212;SDS011;53015;50.046;8.238;2023-07-24T08:47:03;5.50;;;2.00;;
66212;SDS011;53015;50.046;8.238;2023-07-24T08:49:30;3.15;;;2.00;;
66212;SDS011;53015;50.046;8.238;2023-07-24T08:51:57;3.17;;;2.22;;
66212;SDS011;53015;50.046;8.238;2023-07-24T08:54:23;5.00;;;1.90;;
66212;SDS011;53015;50.046;8.238;2023-07-24T08:56:51;4.60;;;2.17;;
66212;SDS011;53015;50.046;8.238;2023-07-24T08:59:17;2.85;;;1.98;;
66212;SDS011;53015;50.046;8.238;2023-07-24T09:01:42;3.55;;;2.17;;
66212;SDS011;53015;50.046;8.238;2023-07-24T09:04:08;4.47;;;2.28;;
66212;SDS011;53015;50.046;8.238;2023-07-24T09:06:35;3.05;;;1.90;;
66212;SDS011;53015;50.046;8.238;2023-07-24T09:09:02;4.03;;;2.15;;
66212;SDS011;53015;50.046;8.238;2023-07-24T09:11:27;3.50;;;2.17;;
66212;SDS011;53015;50.046;8.238;2023-07-24T09:13:53;7.68;;;2.13;;
66212;SDS011;53015;50.046;8.238;2023-07-24T09:16:22;4.00;;;2.20;;
66212;SDS011;53015;50.046;8.238;2023-07-24T09:18:48;3.47;;;1.70;;
66212;SDS011;53015;50.046;8.238;2023-07-24T09:21:13;4.63;;;1.83;;
66212;SDS011;53015;50.046;8.238;2023-07-24T09:23:40;6.40;;;2.20;;
66212;SDS011;53015;50.046;8.238;2023-07-24T09:26:06;16.08;;;2.15;;
66212;SDS011;53015;50.046;8.238;2023-07-24T09:28:32;6.20;;;1.98;;
66212;SDS011;53015;50.046;8.238;2023-07-24T09:30:58;2.30;;;2.08;;
66212;SDS011;53015;50.046;8.238;2023-07-24T09:33:33;9.95;;;2.05;;
66212;SDS011;53015;50.046;8.238;2023-07-24T09:35:59;2.95;;;1.90;;
66212;SDS011;53015;50.046;8.238;2023-07-24T09:38:25;3.75;;;1.92;;
66212;SDS011;53015;50.046;8.238;2023-07-24T09:40:53;2.65;;;1.70;;
66212;SDS011;53015;50.046;8.238;2023-07-24T09:43:20;3.13;;;1.73;;
66212;SDS011;53015;50.046;8.238;2023-07-24T09:45:47;2.55;;;1.88;;
66212;SDS011;53015;50.046;8.238;2023-07-24T09:48:13;2.30;;;2.00;;
66212;SDS011;53015;50.046;8.238;2023-07-24T09:50:40;2.40;;;2.10;;
66212;SDS011;53015;50.046;8.238;2023-07-24T09:53:06;5.05;;;1.90;;
66212;SDS011;53015;50.046;8.238;2023-07-24T09:55:38;2.85;;;2.08;;
66212;SDS011;53015;50.046;8.238;2023-07-24T09:58:10;7.40;;;2.42;;
66212;SDS011;53015;50.046;8.238;2023-07-24T10:00:36;5.30;;;2.10;;
66212;SDS011;53015;50.046;8.238;2023-07-24T10:03:02;3.17;;;2.00;;
66212;SDS011;53015;50.046;8.238;2023-07-24T10:05:28;3.47;;;2.15;;
66212;SDS011;53015;50.046;8.238;2023-07-24T10:07:54;3.03;;;2.28;;
66212;SDS011;53015;50.046;8.238;2023-07-24T10:10:20;5.82;;;4.60;;
66212;SDS011;53015;50.046;8.238;2023-07-24T10:12:47;5.97;;;2.60;;
66212;SDS011;53015;50.046;8.238;2023-07-24T10:15:14;3.40;;;2.42;;
66212;SDS011;53015;50.046;8.238;2023-07-24T10:17:41;4.82;;;2.58;;
66212;SDS011;53015;50.046;8.238;2023-07-24T10:20:07;4.10;;;2.95;;
66212;SDS011;53015;50.046;8.238;2023-07-24T10:22:35;4.85;;;2.70;;
66212;SDS011;53015;50.046;8.238;2023-07-24T10:25:01;3.88;;;2.47;;
66212;SDS011;53015;50.046;8.238;2023-07-24T10:27:26;4.65;;;2.50;;
66212;SDS011;53015;50.046;8.238;2023-07-24T10:29:57;3.20;;;2.67;;
66212;SDS011;53015;50.046;8.238;2023-07-24T10:32:25;6.55;;;2.50;;
66212;SDS011;53015;50.046;8.238;2023-07-24T10:34:57;3.72;;;2.58;;
66212;SDS011;53015;50.046;8.238;2023-07-24T10:37:33;9.80;;;2.88;;
66212;SDS011;53015;50.046;8.238;2023-07-24T10:40:00;4.18;;;2.75;;
66212;SDS011;53015;50.046;8.238;2023-07-24T10:42:26;4.70;;;2.97;;
66212;SDS011;53015;50.046;8.238;2023-07-24T10:45:01;4.15;;;2.60;;
66212;SDS011;53015;50.046;8.238;2023-07-24T10:47:30;6.25;;;2.83;;
66212;SDS011;53015;50.046;8.238;2023-07-24T10:49:56;3.65;;;2.72;;
66212;SDS011;53015;50.046;8.238;2023-07-24T10:52:27;4.90;;;2.67;;
66212;SDS011;53015;50.046;8.238;2023-07-24T10:54:52;5.35;;;3.00;;
66212;SDS011;53015;50.046;8.238;2023-07-24T10:57:21;7.25;;;3.00;;
66212;SDS011;53015;50.046;8.238;2023-07-24T11:02:16;4.03;;;2.90;;
66212;SDS011;53015;50.046;8.238;2023-07-24T11:04:43;4.82;;;2.90;;
66212;SDS011;53015;50.046;8.238;2023-07-24T11:07:08;5.78;;;3.15;;
66212;SDS011;53015;50.046;8.238;2023-07-24T11:09:34;3.30;;;2.47;;
66212;SDS011;53015;50.046;8.238;2023-07-24T11:12:08;4.07;;;2.53;;
66212;SDS011;53015;50.046;8.238;2023-07-24T11:14:34;4.93;;;2.97;;
66212;SDS011;53015;50.046;8.238;2023-07-24T11:17:01;3.80;;;2.80;;
66212;SDS011;53015;50.046;8.238;2023-07-24T11:19:27;4.13;;;2.70;;
66212;SDS011;53015;50.046;8.238;2023-07-24T11:21:54;5.47;;;3.08;;
66212;SDS011;53015;50.046;8.238;2023-07-24T11:24:19;4.43;;;2.72;;
66212;SDS011;53015;50.046;8.238;2023-07-24T11:26:45;4.80;;;3.00;;
66212;SDS011;53015;50.046;8.238;2023-07-24T11:29:11;5.90;;;3.15;;
66212;SDS011;53015;50.046;8.238;2023-07-24T11:31:37;9.43;;;3.17;;
66212;SDS011;53015;50.046;8.238;2023-07-24T11:34:03;3.83;;;2.50;;
66212;SDS011;53015;50.046;8.238;2023-07-24T11:36:28;3.90;;;2.88;;
66212;SDS011;53015;50.046;8.238;2023-07-24T11:38:55;3.92;;;2.50;;
66212;SDS011;53015;50.046;8.238;2023-07-24T11:41:21;3.95;;;2.78;;
66212;SDS011;53015;50.046;8.238;2023-07-24T11:43:47;3.63;;;2.65;;
66212;SDS011;53015;50.046;8.238;2023-07-24T11:46:21;3.47;;;2.47;;
66212;SDS011;53015;50.046;8.238;2023-07-24T11:48:48;4.82;;;2.80;;
66212;SDS011;53015;50.046;8.238;2023-07-24T11:51:13;2.60;;;2.40;;
66212;SDS011;53015;50.046;8.238;2023-07-24T11:53:39;2.75;;;2.15;;
66212;SDS011;53015;50.046;8.238;2023-07-24T11:56:13;4.55;;;2.50;;
66212;SDS011;53015;50.046;8.238;2023-07-24T11:58:39;4.03;;;2.50;;
66212;SDS011;53015;50.046;8.238;2023-07-24T12:01:05;5.68;;;2.45;;
66212;SDS011;53015;50.046;8.238;2023-07-24T12:03:31;4.90;;;2.40;;
66212;SDS011;53015;50.046;8.238;2023-07-24T12:05:56;7.78;;;2.40;;
66212;SDS011;53015;50.046;8.238;2023-07-24T12:08:29;5.78;;;2.50;;
66212;SDS011;53015;50.046;8.238;2023-07-24T12:10:55;2.83;;;2.35;;
66212;SDS011;53015;50.046;8.238;2023-07-24T12:13:22;3.42;;;2.28;;
66212;SDS011;53015;50.046;8.238;2023-07-24T12:15:48;3.65;;;2.20;;
66212;SDS011;53015;50.046;8.238;2023-07-24T12:18:14;5.22;;;2.55;;
66212;SDS011;53015;50.046;8.238;2023-07-24T12:20:40;4.53;;;2.03;;
66212;SDS011;53015;50.046;8.238;2023-07-24T12:23:05;3.55;;;2.30;;
66212;SDS011;53015;50.046;8.238;2023-07-24T12:25:31;3.85;;;2.65;;
66212;SDS011;53015;50.046;8.238;2023-07-24T12:27:56;4.13;;;2.53;;
66212;SDS011;53015;50.046;8.238;2023-07-24T12:30:23;5.25;;;2.65;;
66212;SDS011;53015;50.046;8.238;2023-07-24T12:32:49;2.65;;;2.45;;
66212;SDS011;53015;50.046;8.238;2023-07-24T12:35:15;5.05;;;2.70;;
66212;SDS011;53015;50.046;8.238;2023-07-24T12:37:40;4.85;;;2.95;;
66212;SDS011;53015;50.046;8.238;2023-07-24T12:40:06;4.68;;;2.85;;
66212;SDS011;53015;50.046;8.238;2023-07-24T12:42:33;3.38;;;2.50;;
66212;SDS011;53015;50.046;8.238;2023-07-24T12:44:58;3.30;;;2.60;;
66212;SDS011;53015;50.046;8.238;2023-07-24T12:47:25;2.70;;;2.20;;
66212;SDS011;53015;50.046;8.238;2023-07-24T12:49:50;3.20;;;2.45;;
66212;SDS011;53015;50.046;8.238;2023-07-24T12:52:16;5.43;;;2.33;;
66212;SDS011;53015;50.046;8.238;2023-07-24T12:54:41;4.53;;;2.30;;
66212;SDS011;53015;50.046;8.238;2023-07-24T12:57:07;4.93;;;2.25;;
66212;SDS011;53015;50.046;8.238;2023-07-24T12:59:32;3.00;;;2.30;;
66212;SDS011;53015;50.046;8.238;2023-07-24T13:01:58;6.72;;;2.20;;
66212;SDS011;53015;50.046;8.238;2023-07-24T13:04:25;2.83;;;2.25;;
66212;SDS011;53015;50.046;8.238;2023-07-24T13:06:50;2.72;;;2.00;;
66212;SDS011;53015;50.046;8.238;2023-07-24T13:09:16;3.20;;;2.40;;
66212;SDS011;53015;50.046;8.238;2023-07-24T13:11:42;2.97;;;2.33;;
66212;SDS011;53015;50.046;8.238;2023-07-24T13:14:08;4.03;;;2.08;;
66212;SDS011;53015;50.046;8.238;2023-07-24T13:16:33;4.22;;;2.38;;
66212;SDS011;53015;50.046;8.238;2023-07-24T13:18:59;3.33;;;2.25;;
66212;SDS011;53015;50.046;8.238;2023-07-24T13:21:26;4.32;;;2.33;;
66212;SDS011;53015;50.046;8.238;2023-07-24T13:23:52;5.75;;;2.30;;
66212;SDS011;53015;50.046;8.238;2023-07-24T13:26:17;5.50;;;2.40;;
66212;SDS011;53015;50.046;8.238;2023-07-24T13:28:42;2.95;;;2.38;;
66212;SDS011;53015;50.046;8.238;2023-07-24T13:31:11;2.83;;;2.30;;
66212;SDS011;53015;50.046;8.238;2023-07-24T13:33:37;7.10;;;2.40;;
66212;SDS011;53015;50.046;8.238;2023-07-24T13:36:03;2.72;;;2.20;;
66212;SDS011;53015;50.046;8.238;2023-07-24T13:38:30;3.95;;;2.78;;
66212;SDS011;53015;50.046;8.238;2023-07-24T13:40:56;6.53;;;2.50;;
66212;SDS011;53015;50.046;8.238;2023-07-24T13:43:21;3.13;;;2.10;;
66212;SDS011;53015;50.046;8.238;2023-07-24T13:45:47;3.55;;;2.10;;
66212;SDS011;53015;50.046;8.238;2023-07-24T13:48:12;5.38;;;2.13;;
66212;SDS011;53015;50.046;8.238;2023-07-24T13:50:38;5.43;;;2.40;;
66212;SDS011;53015;50.046;8.238;2023-07-24T13:53:06;4.70;;;2.47;;
66212;SDS011;53015;50.046;8.238;2023-07-24T13:55:33;2.97;;;2.47;;
66212;SDS011;53015;50.046;8.238;2023-07-24T13:57:58;3.28;;;2.40;;
66212;SDS011;53015;50.046;8.238;2023-07-24T14:00:24;2.80;;;2.50;;
66212;SDS011;53015;50.046;8.238;2023-07-24T14:02:49;3.95;;;2.72;;
66212;SDS011;53015;50.046;8.238;2023-07-24T14:05:15;5.13;;;2.70;;
66212;SDS011;53015;50.046;8.238;2023-07-24T14:07:40;7.10;;;2.80;;
66212;SDS011;53015;50.046;8.238;2023-07-24T14:10:06;6.13;;;2.30;;
66212;SDS011;53015;50.046;8.238;2023-07-24T14:12:34;3.30;;;2.42;;
66212;SDS011;53015;50.046;8.238;2023-07-24T14:15:02;4.00;;;2.40;;
66212;SDS011;53015;50.046;8.238;2023-07-24T14:17:29;4.03;;;2.40;;
66212;SDS011;53015;50.046;8.238;2023-07-24T14:19:54;2.70;;;1.95;;
66212;SDS011;53015;50.046;8.238;2023-07-24T14:22:19;4.32;;;2.17;;
66212;SDS011;53015;50.046;8.238;2023-07-24T14:24:45;3.80;;;2.35;;
66212;SDS011;53015;50.046;8.238;2023-07-24T14:27:11;2.72;;;2.10;;
66212;SDS011;53015;50.046;8.238;2023-07-24T14:29:37;4.40;;;2.72;;
66212;SDS011;53015;50.046;8.238;2023-07-24T14:32:03;4.75;;;2.10;;
66212;SDS011;53015;50.046;8.238;2023-07-24T14:34:29;2.70;;;2.00;;
66212;SDS011;53015;50.046;8.238;2023-07-24T14:36:54;4.22;;;1.67;;
66212;SDS011;53015;50.046;8.238;2023-07-24T14:39:20;2.35;;;1.20;;
66212;SDS011;53015;50.046;8.238;2023-07-24T14:41:46;4.28;;;1.50;;
66212;SDS011;53015;50.046;8.238;2023-07-24T14:44:11;1.40;;;1.30;;
66212;SDS011;53015;50.046;8.238;2023-07-24T14:46:38;1.92;;;1.15;;